createdAt,value
2022-08-03T00:02:25.159Z,2.77
2022-08-03T00:07:27.757Z,2.90
2022-08-03T00:12:30.391Z,2.55
2022-08-03T00:17:52.322Z,3.03
2022-08-03T00:22:55.469Z,2.80
2022-08-03T00:27:58.067Z,2.85
2022-08-03T00:33:01.354Z,2.80
2022-08-03T00:38:04.921Z,3.00
2022-08-03T00:43:10.619Z,2.58
2022-08-03T00:48:19.588Z,3.00
2022-08-03T00:53:36.656Z,3.08
2022-08-03T00:58:39.237Z,2.78
2022-08-03T01:03:42.148Z,3.38
2022-08-03T01:09:04.419Z,2.70
2022-08-03T01:14:18.554Z,3.00
2022-08-03T01:19:37.103Z,2.80
2022-08-03T01:25:17.931Z,3.50
2022-08-03T01:30:20.840Z,2.40
2022-08-03T01:35:38.337Z,2.97
2022-08-03T01:40:43.178Z,2.67
2022-08-03T01:45:46.022Z,2.53
2022-08-03T01:50:49.978Z,2.80
2022-08-03T01:55:54.622Z,3.03
2022-08-03T02:01:01.209Z,3.03
2022-08-03T02:07:00.697Z,2.72
2022-08-03T02:11:31.619Z,3.33
2022-08-03T02:16:35.427Z,3.10
2022-08-03T02:21:57.327Z,2.53
2022-08-03T02:27:01.644Z,3.10
2022-08-03T02:32:04.594Z,2.90
2022-08-03T02:37:09.040Z,2.80
2022-08-03T02:42:12.998Z,2.80
2022-08-03T02:47:16.655Z,4.22
2022-08-03T02:52:24.468Z,3.77
2022-08-03T02:57:28.837Z,4.00
2022-08-03T03:02:31.726Z,3.80
2022-08-03T03:07:51.539Z,4.60
2022-08-03T03:12:58.828Z,4.43
2022-08-03T03:18:02.336Z,3.20
2022-08-03T03:23:05.688Z,3.20
2022-08-03T03:28:08.729Z,3.20
2022-08-03T03:33:11.401Z,3.10
2022-08-03T03:38:14.015Z,3.25
2022-08-03T03:43:18.591Z,3.53
2022-08-03T03:53:24.639Z,3.25
2022-08-03T03:58:27.219Z,3.87
2022-08-03T04:03:29.989Z,3.35
2022-08-03T04:08:51.232Z,3.33
2022-08-03T04:14:01.939Z,3.85
2022-08-03T04:19:10.893Z,3.80
2022-08-03T04:24:14.098Z,3.63
2022-08-03T04:29:17.765Z,3.72
2022-08-03T04:34:20.332Z,3.83
2022-08-03T04:39:28.235Z,4.32
2022-08-03T04:44:32.161Z,3.30
2022-08-03T04:49:37.976Z,4.15
2022-08-03T04:54:50.769Z,5.20
2022-08-03T05:00:02.650Z,5.47
2022-08-03T05:05:06.379Z,7.78
2022-08-03T05:10:15.885Z,8.77
2022-08-03T05:15:18.816Z,7.57
2022-08-03T05:20:21.509Z,8.90
2022-08-03T05:25:27.306Z,8.18
2022-08-03T05:30:34.116Z,8.35
2022-08-03T05:35:57.787Z,7.60
2022-08-03T05:41:21.558Z,8.50
2022-08-03T05:46:26.490Z,7.60
2022-08-03T05:51:29.109Z,7.60
2022-08-03T05:56:31.702Z,6.93
2022-08-03T06:01:34.420Z,7.53
2022-08-03T06:06:37.195Z,7.20
2022-08-03T06:11:42.160Z,6.45
2022-08-03T06:16:45.614Z,6.82
2022-08-03T06:21:49.414Z,6.72
2022-08-03T06:26:54.622Z,6.70
2022-08-03T06:31:57.261Z,5.47
2022-08-03T06:37:02.278Z,6.07
2022-08-03T06:42:06.532Z,5.95
2022-08-03T06:47:12.485Z,5.97
2022-08-03T06:52:15.234Z,5.50
2022-08-03T06:57:37.891Z,6.10
2022-08-03T07:02:41.071Z,6.55
2022-08-03T07:07:43.708Z,5.27
2022-08-03T07:12:52.975Z,6.15
2022-08-03T07:17:58.941Z,5.45
2022-08-03T07:23:01.715Z,6.05
2022-08-03T07:28:06.822Z,6.18
2022-08-03T07:33:09.525Z,5.60
2022-08-03T07:38:12.054Z,6.40
2022-08-03T07:43:15.720Z,5.93
2022-08-03T07:48:18.336Z,5.07
2022-08-03T07:53:21.390Z,5.60
2022-08-03T07:58:24.635Z,5.72
2022-08-03T08:03:27.463Z,5.80
2022-08-03T08:08:44.181Z,6.75
2022-08-03T08:13:46.796Z,5.30
2022-08-03T08:18:49.474Z,4.47
2022-08-03T08:23:57.169Z,5.53
2022-08-03T08:29:00.590Z,5.57
2022-08-03T08:34:05.705Z,4.57
2022-08-03T08:39:08.230Z,5.43
2022-08-03T08:44:12.238Z,4.85
2022-08-03T08:49:17.563Z,4.63
2022-08-03T08:54:22.890Z,5.80
2022-08-03T08:59:26.660Z,4.75
2022-08-03T09:04:49.618Z,4.95
2022-08-03T09:15:24.295Z,5.55
2022-08-03T09:20:29.708Z,4.68
2022-08-03T09:25:40.757Z,4.80
2022-08-03T09:30:58.742Z,5.38
2022-08-03T09:36:02.823Z,5.18
2022-08-03T09:41:18.258Z,4.63
2022-08-03T09:46:21.243Z,4.57
2022-08-03T09:51:33.282Z,4.78
2022-08-03T09:56:49.167Z,4.95
2022-08-03T10:01:51.860Z,4.32
2022-08-03T10:07:07.468Z,5.65
2022-08-03T10:12:14.664Z,5.32
2022-08-03T10:17:17.469Z,5.38
2022-08-03T10:22:23.355Z,4.53
2022-08-03T10:27:33.384Z,5.47
2022-08-03T10:32:35.878Z,4.75
2022-08-03T10:37:56.655Z,4.57
2022-08-03T10:43:06.955Z,4.97
2022-08-03T10:48:09.836Z,4.40
2022-08-03T10:53:14.691Z,3.88
2022-08-03T10:58:56.949Z,3.75
2022-08-03T11:04:08.997Z,3.80
2022-08-03T11:09:13.834Z,4.20
2022-08-03T11:14:21.089Z,3.95
2022-08-03T11:19:27.590Z,3.60
2022-08-03T11:24:37.784Z,3.95
2022-08-03T11:30:07.658Z,3.97
2022-08-03T11:35:30.731Z,4.32
2022-08-03T11:40:46.363Z,4.13
2022-08-03T11:46:28.497Z,4.15
2022-08-03T11:51:32.712Z,4.00
2022-08-03T11:56:50.787Z,3.67
2022-08-03T12:02:09.714Z,3.47
2022-08-03T12:07:12.390Z,3.53
2022-08-03T12:12:27.805Z,3.40
2022-08-03T12:17:52.738Z,3.28
2022-08-03T12:23:03.724Z,3.30
2022-08-03T12:28:36.090Z,3.10
2022-08-03T12:33:33.021Z,3.50
2022-08-03T12:38:39.684Z,3.85
2022-08-03T12:43:50.270Z,4.10
2022-08-03T12:49:06.815Z,3.13
2022-08-03T12:54:16.169Z,3.90
2022-08-03T12:59:32.514Z,3.92
2022-08-03T13:04:38.361Z,3.83
2022-08-03T13:09:45.978Z,3.40
2022-08-03T13:14:51.892Z,3.05
2022-08-03T13:19:54.484Z,3.50
2022-08-03T13:24:58.100Z,3.00
2022-08-03T13:30:00.783Z,2.78
2022-08-03T13:35:07.999Z,3.00
2022-08-03T13:40:11.912Z,2.60
2022-08-03T13:45:18.304Z,2.53
2022-08-03T13:50:22.185Z,2.50
2022-08-03T13:55:24.983Z,2.90
2022-08-03T14:00:29.570Z,3.20
2022-08-03T14:05:32.601Z,3.20
2022-08-03T14:10:37.275Z,2.70
2022-08-03T14:15:40.013Z,2.80
2022-08-03T14:20:50.114Z,3.20
2022-08-03T14:25:57.910Z,3.22
2022-08-03T14:31:00.961Z,3.45
2022-08-03T14:36:03.996Z,2.85
2022-08-03T14:41:06.629Z,3.92
2022-08-03T14:46:15.160Z,3.30
2022-08-03T14:51:17.759Z,2.85
2022-08-03T14:56:20.434Z,3.10
2022-08-03T15:02:05.355Z,2.40
2022-08-03T15:07:04.471Z,3.10
2022-08-03T15:12:07.281Z,2.88
2022-08-03T15:17:09.949Z,3.17
2022-08-03T15:22:15.461Z,3.10
2022-08-03T15:27:22.234Z,2.47
2022-08-03T15:32:25.031Z,2.63
2022-08-03T15:37:29.263Z,3.15
2022-08-03T15:42:33.125Z,3.33
2022-08-03T15:47:35.787Z,2.80
2022-08-03T15:52:38.572Z,2.70
2022-08-03T15:59:03.693Z,2.63
2022-08-03T16:03:04.565Z,2.90
2022-08-03T16:08:11.805Z,3.15
2022-08-03T16:13:18.734Z,2.70
2022-08-03T16:18:22.557Z,2.92
2022-08-03T16:23:25.605Z,2.45
2022-08-03T16:28:34.468Z,3.10
2022-08-03T16:33:37.767Z,2.53
2022-08-03T16:38:40.596Z,2.63
2022-08-03T16:43:43.160Z,2.60
2022-08-03T16:48:45.874Z,2.83
2022-08-03T16:54:07.251Z,2.55
2022-08-03T16:59:10.898Z,2.67
2022-08-03T17:04:14.304Z,2.80
2022-08-03T17:09:21.050Z,3.08
2022-08-03T17:14:28.269Z,2.65
2022-08-03T17:19:32.572Z,3.25
2022-08-03T17:24:41.387Z,3.08
2022-08-03T17:29:48.811Z,3.03
2022-08-03T17:34:51.480Z,3.15
2022-08-03T17:39:59.480Z,2.97
2022-08-03T17:45:03.757Z,3.10
2022-08-03T17:50:23.293Z,2.90
2022-08-03T17:55:55.732Z,2.72
2022-08-03T18:01:58.262Z,2.95
2022-08-03T18:06:38.983Z,2.92
2022-08-03T18:12:02.735Z,2.60
2022-08-03T18:17:10.458Z,2.78
2022-08-03T18:22:14.413Z,2.72
2022-08-03T18:27:16.969Z,2.92
2022-08-03T18:32:22.751Z,2.92
2022-08-03T18:37:28.035Z,3.00
2022-08-03T18:42:32.631Z,2.50
2022-08-03T18:47:52.502Z,3.97
2022-08-03T18:53:23.102Z,3.17
2022-08-03T18:59:05.456Z,3.42
2022-08-03T19:04:14.035Z,2.97
2022-08-03T19:09:42.160Z,2.92
2022-08-03T19:14:51.915Z,2.85
2022-08-03T19:19:58.145Z,2.90
2022-08-03T19:25:02.421Z,2.92
2022-08-03T19:30:19.943Z,3.95
2022-08-03T19:35:52.189Z,2.90
2022-08-03T19:40:53.805Z,3.47
2022-08-03T19:46:05.946Z,3.05
2022-08-03T19:51:12.197Z,3.17
2022-08-03T19:56:15.882Z,3.10
2022-08-03T20:01:21.331Z,2.97
2022-08-03T20:06:24.401Z,3.03
2022-08-03T20:11:28.803Z,3.40
2022-08-03T20:16:31.698Z,3.60
2022-08-03T20:21:35.621Z,3.20
2022-08-03T20:26:44.547Z,3.53
2022-08-03T20:31:47.681Z,3.00
2022-08-03T20:36:50.330Z,3.40
2022-08-03T20:41:53.553Z,3.03
2022-08-03T20:47:00.659Z,3.45
2022-08-03T20:52:04.028Z,3.03
2022-08-03T20:57:09.574Z,3.25
2022-08-03T21:02:13.052Z,2.88
2022-08-03T21:07:25.711Z,3.20
2022-08-03T21:12:50.632Z,3.08
2022-08-03T21:17:56.217Z,3.22
2022-08-03T21:23:03.179Z,3.83
2022-08-03T21:28:07.592Z,3.15
2022-08-03T21:33:10.168Z,3.17
2022-08-03T21:38:29.798Z,3.50
2022-08-03T21:43:35.248Z,3.15
2022-08-03T21:48:39.852Z,3.55
2022-08-03T21:54:02.194Z,3.65
2022-08-03T21:59:09.413Z,3.28
2022-08-03T22:04:49.991Z,3.42
2022-08-03T22:09:40.988Z,3.40
2022-08-03T22:15:00.172Z,3.53
2022-08-03T22:20:06.220Z,3.47
2022-08-03T22:25:12.660Z,3.60
2022-08-03T22:30:17.971Z,3.63
2022-08-03T22:35:21.861Z,3.40
2022-08-03T22:40:26.108Z,3.70
2022-08-03T22:46:05.993Z,3.53
2022-08-03T22:55:55.050Z,4.43
2022-08-03T23:01:09.697Z,3.20
2022-08-03T23:06:14.727Z,3.45
2022-08-03T23:11:18.641Z,3.67
2022-08-03T23:22:00.561Z,3.55
2022-08-03T23:26:56.009Z,4.27
2022-08-03T23:31:59.745Z,3.95
2022-08-03T23:37:02.371Z,3.67
2022-08-03T23:42:05.038Z,4.47
2022-08-03T23:47:07.569Z,4.30
2022-08-03T23:52:13.597Z,4.35
2022-08-03T23:57:26.157Z,4.28
